Time;durP1;ratioP1;P1;durP2;ratioP2;P2;SDS_P1;SDS_P2;PMS_P1;PMS_P2;Temp;Humidity;BMP_temperature;BMP_pressure;BME280_temperature;BME280_humidity;BME280_pressure;Samples;Min_cycle;Max_cycle;Signal;HPM_P1;HPM_P2
2023/05/31 00:01:12;;;;;;;2.80;1.42;;;;;;;;;;5055192;28;20043;-83
2023/05/31 00:03:41;;;;;;;4.32;1.70;;;;;;;;;;5073040;28;20063;-83
2023/05/31 00:06:07;;;;;;;2.53;1.33;;;;;;;;;;5058879;28;20033;-82
2023/05/31 00:08:32;;;;;;;4.88;1.50;;;;;;;;;;5041234;28;20044;-83
2023/05/31 00:10:58;;;;;;;5.15;1.80;;;;;;;;;;5064943;28;20046;-80
2023/05/31 00:13:23;;;;;;;7.20;2.38;;;;;;;;;;5046289;28;20544;-83
2023/05/31 00:15:49;;;;;;;2.45;1.58;;;;;;;;;;5049577;28;20048;-82
2023/05/31 00:18:14;;;;;;;4.63;1.88;;;;;;;;;;5068317;28;20044;-82
2023/05/31 00:20:39;;;;;;;2.25;1.23;;;;;;;;;;5068675;28;20036;-81
2023/05/31 00:23:05;;;;;;;5.13;1.95;;;;;;;;;;5057838;28;20035;-80
2023/05/31 00:25:30;;;;;;;4.82;1.60;;;;;;;;;;5059644;28;20047;-81
2023/05/31 00:27:56;;;;;;;2.10;1.63;;;;;;;;;;5016323;28;20696;-79
2023/05/31 00:30:22;;;;;;;5.90;2.45;;;;;;;;;;5057217;28;20044;-79
2023/05/31 00:32:47;;;;;;;4.90;1.90;;;;;;;;;;5046456;28;20123;-81
2023/05/31 00:35:13;;;;;;;5.00;2.13;;;;;;;;;;5035928;28;20035;-83
2023/05/31 00:37:38;;;;;;;8.48;1.83;;;;;;;;;;5057337;28;20039;-80
2023/05/31 00:40:05;;;;;;;1.88;1.10;;;;;;;;;;5056312;28;20040;-80
2023/05/31 00:42:31;;;;;;;2.33;1.48;;;;;;;;;;5063028;28;20416;-78
2023/05/31 00:44:57;;;;;;;2.00;1.65;;;;;;;;;;5067344;28;20048;-77
2023/05/31 00:47:22;;;;;;;6.38;2.40;;;;;;;;;;5063158;28;20040;-80
2023/05/31 00:49:48;;;;;;;4.75;1.65;;;;;;;;;;5066155;28;20039;-79
2023/05/31 00:52:14;;;;;;;6.10;1.95;;;;;;;;;;5061200;28;20040;-78
2023/05/31 00:54:39;;;;;;;2.55;1.35;;;;;;;;;;5057799;28;20067;-78
2023/05/31 00:57:05;;;;;;;4.25;1.77;;;;;;;;;;5066649;28;20516;-79
2023/05/31 00:59:30;;;;;;;3.67;1.75;;;;;;;;;;5066914;28;20054;-78
2023/05/31 01:01:57;;;;;;;3.20;1.27;;;;;;;;;;5067188;28;20044;-78
2023/05/31 01:04:23;;;;;;;7.05;1.95;;;;;;;;;;5059680;28;20044;-78
2023/05/31 01:06:49;;;;;;;2.92;1.70;;;;;;;;;;5053661;28;20500;-79
2023/05/31 01:09:16;;;;;;;2.65;1.60;;;;;;;;;;5059802;28;20873;-79
2023/05/31 01:11:55;;;;;;;2.25;1.50;;;;;;;;;;5065148;28;20044;-79
2023/05/31 01:14:48;;;;;;;3.05;1.23;;;;;;;;;;5061180;28;20032;-81
2023/05/31 01:17:13;;;;;;;2.50;1.50;;;;;;;;;;5055053;28;20066;-80
2023/05/31 01:19:48;;;;;;;5.68;1.98;;;;;;;;;;5047008;28;20036;-80
2023/05/31 01:22:27;;;;;;;4.32;1.70;;;;;;;;;;5076354;28;20032;-79
2023/05/31 01:25:16;;;;;;;5.80;1.90;;;;;;;;;;5075257;28;20044;-79
2023/05/31 01:27:42;;;;;;;2.95;1.50;;;;;;;;;;5036873;28;20048;-79
2023/05/31 01:30:09;;;;;;;2.45;1.40;;;;;;;;;;5032804;28;20046;-79
2023/05/31 01:32:36;;;;;;;3.67;1.63;;;;;;;;;;5080408;28;20059;-79
2023/05/31 01:35:02;;;;;;;3.95;1.67;;;;;;;;;;5066778;28;20055;-78
2023/05/31 01:37:27;;;;;;;2.53;1.30;;;;;;;;;;5049220;28;20426;-79
2023/05/31 01:39:52;;;;;;;3.33;2.17;;;;;;;;;;5077300;28;20063;-79
2023/05/31 01:42:20;;;;;;;2.90;1.80;;;;;;;;;;5054887;28;20112;-79
2023/05/31 01:44:48;;;;;;;4.15;1.90;;;;;;;;;;5050423;28;20044;-79
2023/05/31 01:47:14;;;;;;;3.38;1.63;;;;;;;;;;5073078;28;20043;-78
2023/05/31 01:49:40;;;;;;;3.75;1.60;;;;;;;;;;5068572;28;20043;-79
2023/05/31 01:52:07;;;;;;;5.15;1.80;;;;;;;;;;5058822;28;20036;-78
2023/05/31 01:54:32;;;;;;;1.92;1.38;;;;;;;;;;5054553;28;20107;-78
2023/05/31 01:57:00;;;;;;;4.75;1.60;;;;;;;;;;5049638;28;20504;-79
2023/05/31 01:59:26;;;;;;;3.30;1.52;;;;;;;;;;5057695;28;20076;-79
2023/05/31 02:01:52;;;;;;;4.32;1.90;;;;;;;;;;5066741;28;20142;-79
2023/05/31 02:04:19;;;;;;;3.22;1.45;;;;;;;;;;5055408;28;20127;-79
2023/05/31 02:06:45;;;;;;;4.15;1.75;;;;;;;;;;5071518;28;20036;-78
2023/05/31 02:09:10;;;;;;;6.53;1.90;;;;;;;;;;5054839;28;20035;-78
2023/05/31 02:11:35;;;;;;;3.13;1.88;;;;;;;;;;5054731;28;20135;-78
2023/05/31 02:14:01;;;;;;;6.72;1.95;;;;;;;;;;5079527;28;20036;-78
2023/05/31 02:16:26;;;;;;;4.75;2.25;;;;;;;;;;5060039;28;20040;-78
2023/05/31 02:18:51;;;;;;;2.58;1.10;;;;;;;;;;5074013;28;20039;-79
2023/05/31 02:21:17;;;;;;;5.20;1.80;;;;;;;;;;5072003;28;20059;-79
2023/05/31 02:23:42;;;;;;;4.45;1.73;;;;;;;;;;5076485;28;20043;-79
2023/05/31 02:26:08;;;;;;;3.92;2.15;;;;;;;;;;5052471;28;20041;-78
2023/05/31 02:28:33;;;;;;;2.75;1.75;;;;;;;;;;5075631;28;20033;-79
2023/05/31 02:31:00;;;;;;;3.35;1.55;;;;;;;;;;5070872;28;20036;-80
2023/05/31 02:33:27;;;;;;;1.00;0.85;;;;;;;;;;5049864;28;20060;-80
2023/05/31 02:35:52;;;;;;;2.63;1.20;;;;;;;;;;5055095;28;20036;-79
2023/05/31 02:38:20;;;;;;;1.50;1.15;;;;;;;;;;5050688;28;20094;-79
2023/05/31 02:40:45;;;;;;;2.70;1.40;;;;;;;;;;5079748;28;20095;-79
2023/05/31 02:43:11;;;;;;;2.63;1.70;;;;;;;;;;5078783;28;20085;-79
2023/05/31 02:45:36;;;;;;;4.75;1.83;;;;;;;;;;5079984;28;20084;-79
2023/05/31 02:48:05;;;;;;;2.30;1.30;;;;;;;;;;5059578;28;20051;-78
2023/05/31 02:50:31;;;;;;;2.63;1.48;;;;;;;;;;5053652;28;20412;-79
2023/05/31 02:52:56;;;;;;;4.15;2.00;;;;;;;;;;5025754;28;20120;-79
2023/05/31 02:55:22;;;;;;;1.85;1.02;;;;;;;;;;5051733;28;20052;-77
2023/05/31 02:57:47;;;;;;;6.07;1.70;;;;;;;;;;5058219;28;20033;-78
2023/05/31 03:00:13;;;;;;;3.60;1.60;;;;;;;;;;5037008;28;20059;-79
2023/05/31 03:02:39;;;;;;;2.30;1.70;;;;;;;;;;5026465;28;20138;-78
2023/05/31 03:05:06;;;;;;;5.18;1.98;;;;;;;;;;5050753;28;20033;-78
2023/05/31 03:07:41;;;;;;;2.95;1.48;;;;;;;;;;5044115;28;20033;-79
2023/05/31 03:10:07;;;;;;;1.40;1.20;;;;;;;;;;5069404;28;20111;-78
2023/05/31 03:12:32;;;;;;;2.97;1.33;;;;;;;;;;5081531;28;20048;-78
2023/05/31 03:14:58;;;;;;;3.78;1.48;;;;;;;;;;5057852;28;20083;-78
2023/05/31 03:17:23;;;;;;;4.80;1.70;;;;;;;;;;5065281;28;20202;-79
2023/05/31 03:19:49;;;;;;;4.40;1.52;;;;;;;;;;5032661;28;20032;-78
2023/05/31 03:22:14;;;;;;;3.38;1.25;;;;;;;;;;5053795;28;20052;-78
2023/05/31 03:24:40;;;;;;;4.65;1.80;;;;;;;;;;5052818;28;20064;-79
2023/05/31 03:27:06;;;;;;;7.18;1.20;;;;;;;;;;5042257;28;20031;-79
2023/05/31 03:29:32;;;;;;;4.25;2.00;;;;;;;;;;5053472;28;20044;-79
2023/05/31 03:31:58;;;;;;;4.30;1.67;;;;;;;;;;5045075;28;20544;-79
2023/05/31 03:34:24;;;;;;;4.75;1.70;;;;;;;;;;5015159;28;20041;-79
2023/05/31 03:36:50;;;;;;;2.97;1.67;;;;;;;;;;5051151;28;20040;-79
2023/05/31 03:39:16;;;;;;;3.05;1.85;;;;;;;;;;5053700;28;20036;-79
2023/05/31 03:41:41;;;;;;;2.90;1.70;;;;;;;;;;5055699;28;20095;-80
2023/05/31 03:44:06;;;;;;;4.65;1.88;;;;;;;;;;5063836;28;20032;-82
2023/05/31 03:46:32;;;;;;;3.30;1.60;;;;;;;;;;5065621;28;20504;-80
2023/05/31 03:48:57;;;;;;;5.15;1.60;;;;;;;;;;5042575;28;20040;-82
2023/05/31 03:51:23;;;;;;;3.55;1.80;;;;;;;;;;5050472;28;20032;-81
2023/05/31 03:53:48;;;;;;;3.40;2.03;;;;;;;;;;5069908;28;20039;-80
2023/05/31 03:56:14;;;;;;;4.63;1.80;;;;;;;;;;5065727;28;20040;-81
2023/05/31 03:58:39;;;;;;;4.70;1.80;;;;;;;;;;5068395;28;20047;-83
2023/05/31 04:01:06;;;;;;;4.47;1.95;;;;;;;;;;5072191;28;20036;-85
2023/05/31 04:03:31;;;;;;;5.70;2.00;;;;;;;;;;5032241;28;20058;-82
2023/05/31 04:05:57;;;;;;;4.00;1.65;;;;;;;;;;5061629;28;20028;-84
2023/05/31 04:08:22;;;;;;;3.60;1.90;;;;;;;;;;5064348;28;20509;-81
2023/05/31 04:10:48;;;;;;;3.42;2.00;;;;;;;;;;5064179;28;20081;-80
2023/05/31 04:13:14;;;;;;;3.25;1.73;;;;;;;;;;5064345;28;20047;-79
2023/05/31 04:15:39;;;;;;;3.72;1.85;;;;;;;;;;5048862;28;20048;-77
2023/05/31 04:18:05;;;;;;;7.03;1.75;;;;;;;;;;5028242;28;20045;-79
2023/05/31 04:20:30;;;;;;;4.15;2.05;;;;;;;;;;5029704;28;20616;-83
2023/05/31 04:22:56;;;;;;;4.72;1.90;;;;;;;;;;5050573;28;20040;-80
2023/05/31 04:25:21;;;;;;;4.25;2.28;;;;;;;;;;5060218;28;20039;-79
2023/05/31 04:27:47;;;;;;;5.90;1.83;;;;;;;;;;5045146;28;20085;-83
2023/05/31 04:30:13;;;;;;;5.72;1.83;;;;;;;;;;5019766;28;20127;-83
2023/05/31 04:32:39;;;;;;;5.72;2.05;;;;;;;;;;5043982;28;20119;-80
2023/05/31 04:35:05;;;;;;;6.03;2.20;;;;;;;;;;5046655;28;20036;-80
2023/05/31 04:37:32;;;;;;;8.18;2.20;;;;;;;;;;5033264;28;20064;-77
2023/05/31 04:39:58;;;;;;;4.82;2.00;;;;;;;;;;5052119;28;20051;-80
2023/05/31 04:42:24;;;;;;;8.95;2.17;;;;;;;;;;5066310;28;20028;-80
2023/05/31 04:45:01;;;;;;;5.63;1.80;;;;;;;;;;5050210;28;20040;-80
2023/05/31 04:47:32;;;;;;;6.03;2.05;;;;;;;;;;5049997;28;20055;-83
2023/05/31 04:49:58;;;;;;;6.10;2.30;;;;;;;;;;5050640;28;20539;-80
2023/05/31 04:52:29;;;;;;;4.38;2.22;;;;;;;;;;5037948;28;20048;-80
2023/05/31 04:54:54;;;;;;;;;;;;;;;;;;5054988;28;20048;-81
2023/05/31 04:57:20;;;;;;;5.07;2.05;;;;;;;;;;5031742;28;19916;-85
2023/05/31 04:59:46;;;;;;;3.75;2.00;;;;;;;;;;5081513;28;20050;-81
2023/05/31 05:02:11;;;;;;;8.25;2.13;;;;;;;;;;5082488;28;20114;-82
2023/05/31 05:04:37;;;;;;;2.65;1.77;;;;;;;;;;5065413;28;20156;-82
2023/05/31 05:07:02;;;;;;;3.45;1.60;;;;;;;;;;5051408;28;20520;-82
2023/05/31 05:09:27;;;;;;;3.25;2.10;;;;;;;;;;5049331;28;20051;-82
2023/05/31 05:11:54;;;;;;;4.50;2.05;;;;;;;;;;5001641;28;20216;-82
2023/05/31 05:14:19;;;;;;;4.75;1.80;;;;;;;;;;5051835;28;20068;-82
2023/05/31 05:16:45;;;;;;;4.38;2.10;;;;;;;;;;5071995;28;20055;-81
2023/05/31 05:19:10;;;;;;;5.70;2.05;;;;;;;;;;5073103;28;20069;-81
2023/05/31 05:21:35;;;;;;;4.82;2.50;;;;;;;;;;5077002;28;20662;-81
2023/05/31 05:24:01;;;;;;;4.90;2.33;;;;;;;;;;5057145;28;20040;-79
2023/05/31 05:26:28;;;;;;;6.28;2.25;;;;;;;;;;5056758;28;20113;-82
2023/05/31 05:28:54;;;;;;;4.60;1.83;;;;;;;;;;5053463;28;20044;-80
2023/05/31 05:31:19;;;;;;;5.93;1.83;;;;;;;;;;5067654;28;20048;-81
2023/05/31 05:33:45;;;;;;;4.72;1.65;;;;;;;;;;5072602;28;20036;-82
2023/05/31 05:36:10;;;;;;;6.22;2.20;;;;;;;;;;5062173;28;20042;-81
2023/05/31 05:38:35;;;;;;;4.60;2.05;;;;;;;;;;5050614;28;20513;-82
2023/05/31 05:41:01;;;;;;;4.53;1.90;;;;;;;;;;5069987;28;20052;-81
2023/05/31 05:43:28;;;;;;;4.97;1.85;;;;;;;;;;5061496;28;20451;-81
2023/05/31 05:45:54;;;;;;;3.60;1.70;;;;;;;;;;5072184;28;20118;-83
2023/05/31 05:48:19;;;;;;;4.38;1.58;;;;;;;;;;5077391;28;20064;-81
2023/05/31 05:50:45;;;;;;;6.65;2.30;;;;;;;;;;5073035;28;20043;-82
2023/05/31 05:53:10;;;;;;;4.15;2.00;;;;;;;;;;5052215;28;20039;-82
2023/05/31 05:55:36;;;;;;;3.85;1.80;;;;;;;;;;5071123;28;20516;-82
2023/05/31 05:58:02;;;;;;;6.20;2.05;;;;;;;;;;5058555;28;20032;-83
2023/05/31 06:00:28;;;;;;;5.68;1.95;;;;;;;;;;5057305;28;20106;-82
2023/05/31 06:02:53;;;;;;;3.72;1.85;;;;;;;;;;5072571;28;20336;-82
2023/05/31 06:05:25;;;;;;;6.00;2.30;;;;;;;;;;5082116;28;20097;-81
2023/05/31 06:07:53;;;;;;;5.15;2.20;;;;;;;;;;5050485;28;20042;-82
2023/05/31 06:10:19;;;;;;;4.72;1.90;;;;;;;;;;5060333;28;20055;-82
2023/05/31 06:12:44;;;;;;;3.35;1.80;;;;;;;;;;5067663;28;20830;-81
2023/05/31 06:15:10;;;;;;;3.95;1.42;;;;;;;;;;5063983;28;20031;-83
2023/05/31 06:17:35;;;;;;;5.28;1.60;;;;;;;;;;5072873;28;20039;-82
2023/05/31 06:20:05;;;;;;;3.67;1.77;;;;;;;;;;5045965;28;20102;-82
2023/05/31 06:22:30;;;;;;;2.35;1.38;;;;;;;;;;5051000;28;20104;-81
2023/05/31 06:24:57;;;;;;;3.40;1.65;;;;;;;;;;5065382;28;20769;-81
2023/05/31 06:27:23;;;;;;;2.72;1.92;;;;;;;;;;5050886;28;20124;-81
2023/05/31 06:29:54;;;;;;;5.40;2.33;;;;;;;;;;5058428;28;20134;-82
2023/05/31 06:32:20;;;;;;;4.28;2.00;;;;;;;;;;5064972;28;20608;-81
2023/05/31 06:34:46;;;;;;;7.20;2.10;;;;;;;;;;5043524;28;20041;-81
2023/05/31 06:37:12;;;;;;;3.33;1.83;;;;;;;;;;5064006;28;20028;-82
2023/05/31 06:39:37;;;;;;;4.72;1.90;;;;;;;;;;5064034;28;20530;-81
2023/05/31 06:42:03;;;;;;;4.70;2.10;;;;;;;;;;5063535;28;20046;-82
2023/05/31 06:44:28;;;;;;;4.55;1.90;;;;;;;;;;5064083;28;20508;-81
2023/05/31 06:46:54;;;;;;;6.57;2.00;;;;;;;;;;5036177;28;20107;-81
2023/05/31 06:49:19;;;;;;;4.32;1.90;;;;;;;;;;5054130;28;20053;-81
2023/05/31 06:51:45;;;;;;;4.50;1.60;;;;;;;;;;5066217;28;20621;-82
2023/05/31 06:54:10;;;;;;;4.43;2.00;;;;;;;;;;5059557;28;20035;-82
2023/05/31 06:56:35;;;;;;;8.68;2.60;;;;;;;;;;5056444;28;20032;-82
2023/05/31 06:59:01;;;;;;;2.70;2.13;;;;;;;;;;5057186;28;20068;-82
2023/05/31 07:01:28;;;;;;;4.28;1.70;;;;;;;;;;5046204;28;20554;-83
2023/05/31 07:03:53;;;;;;;5.72;1.92;;;;;;;;;;5064699;28;20047;-83
2023/05/31 07:06:19;;;;;;;5.05;1.73;;;;;;;;;;5064628;28;20047;-82
2023/05/31 07:08:45;;;;;;;5.80;2.00;;;;;;;;;;5073587;28;20049;-82
2023/05/31 07:11:12;;;;;;;3.22;1.80;;;;;;;;;;5046808;28;20548;-81
2023/05/31 07:13:37;;;;;;;4.28;1.75;;;;;;;;;;5042265;28;20124;-81
2023/05/31 07:16:02;;;;;;;3.63;1.58;;;;;;;;;;5026680;28;20132;-82
2023/05/31 07:18:28;;;;;;;3.67;1.70;;;;;;;;;;5062990;28;20078;-81
2023/05/31 07:20:56;;;;;;;2.72;1.52;;;;;;;;;;5052455;28;20045;-82
2023/05/31 07:23:23;;;;;;;4.38;1.70;;;;;;;;;;5048821;28;20063;-81
2023/05/31 07:25:48;;;;;;;4.97;1.70;;;;;;;;;;5052681;28;20040;-81
2023/05/31 07:28:14;;;;;;;5.75;1.92;;;;;;;;;;5046863;28;20040;-81
2023/05/31 07:30:39;;;;;;;4.30;1.60;;;;;;;;;;5043644;28;20048;-82
2023/05/31 07:33:05;;;;;;;3.97;2.20;;;;;;;;;;5048563;28;20044;-81
2023/05/31 07:35:30;;;;;;;6.45;2.15;;;;;;;;;;5052622;28;20032;-81
2023/05/31 07:37:55;;;;;;;4.80;2.28;;;;;;;;;;5048447;28;20055;-80
2023/05/31 07:40:21;;;;;;;3.65;2.03;;;;;;;;;;5063671;28;20101;-81
2023/05/31 07:42:46;;;;;;;4.85;2.50;;;;;;;;;;5060950;28;20055;-82
2023/05/31 07:45:11;;;;;;;3.45;2.20;;;;;;;;;;5033955;28;20050;-82
2023/05/31 07:47:37;;;;;;;3.28;1.98;;;;;;;;;;5067141;28;20040;-81
2023/05/31 07:50:03;;;;;;;4.68;1.75;;;;;;;;;;5065129;28;20460;-81
2023/05/31 07:52:29;;;;;;;3.28;2.00;;;;;;;;;;5050317;28;20473;-81
2023/05/31 07:54:54;;;;;;;4.05;1.98;;;;;;;;;;5063136;28;20048;-82
2023/05/31 07:57:20;;;;;;;5.07;2.47;;;;;;;;;;5045794;28;20031;-81
2023/05/31 07:59:45;;;;;;;5.18;2.13;;;;;;;;;;5048722;28;20069;-82
2023/05/31 08:02:11;;;;;;;2.80;1.90;;;;;;;;;;5051374;28;20481;-81
2023/05/31 08:04:36;;;;;;;3.78;1.70;;;;;;;;;;5054258;28;20047;-81
2023/05/31 08:07:01;;;;;;;5.93;1.92;;;;;;;;;;5063752;28;20059;-82
2023/05/31 08:09:27;;;;;;;5.88;1.90;;;;;;;;;;5067177;28;20101;-82
2023/05/31 08:11:52;;;;;;;3.63;1.65;;;;;;;;;;5043223;28;20123;-81
2023/05/31 08:14:18;;;;;;;3.63;1.52;;;;;;;;;;5047600;28;20562;-82
2023/05/31 08:16:43;;;;;;;3.95;1.85;;;;;;;;;;5054083;28;20040;-82
2023/05/31 08:19:08;;;;;;;4.13;1.88;;;;;;;;;;5058173;28;20425;-83
2023/05/31 08:21:36;;;;;;;3.75;1.60;;;;;;;;;;5056783;28;20047;-81
2023/05/31 08:24:02;;;;;;;3.55;1.75;;;;;;;;;;5061862;28;20381;-82
2023/05/31 08:26:28;;;;;;;2.25;1.70;;;;;;;;;;5040710;28;20036;-81
2023/05/31 08:28:53;;;;;;;5.40;1.73;;;;;;;;;;5063034;28;20054;-83
2023/05/31 08:31:19;;;;;;;3.05;1.63;;;;;;;;;;5053588;28;20702;-82
2023/05/31 08:33:57;;;;;;;4.43;1.73;;;;;;;;;;5055281;28;20078;-81
2023/05/31 08:36:23;;;;;;;4.22;1.38;;;;;;;;;;5063143;28;20039;-81
2023/05/31 08:38:49;;;;;;;3.20;1.52;;;;;;;;;;5029916;28;20138;-82
2023/05/31 08:41:15;;;;;;;4.22;2.03;;;;;;;;;;5046161;28;20058;-81
2023/05/31 08:43:41;;;;;;;2.53;1.65;;;;;;;;;;5046561;28;20107;-82
2023/05/31 08:46:07;;;;;;;4.07;1.75;;;;;;;;;;5046794;28;20043;-80
2023/05/31 08:48:50;;;;;;;6.03;2.22;;;;;;;;;;5043682;28;20072;-83
2023/05/31 08:51:16;;;;;;;3.88;1.75;;;;;;;;;;5020803;28;20461;-81
2023/05/31 08:53:43;;;;;;;4.43;1.73;;;;;;;;;;5064211;28;20036;-82
2023/05/31 08:56:08;;;;;;;5.60;1.90;;;;;;;;;;5063614;28;20060;-82
2023/05/31 08:58:35;;;;;;;5.75;1.98;;;;;;;;;;5060132;28;20452;-83
2023/05/31 09:01:02;;;;;;;4.25;1.90;;;;;;;;;;5064591;28;20040;-82
2023/05/31 09:03:27;;;;;;;4.07;1.73;;;;;;;;;;5061525;28;20090;-82
2023/05/31 09:05:56;;;;;;;4.22;1.90;;;;;;;;;;5023570;28;20044;-81
2023/05/31 09:08:22;;;;;;;2.67;1.70;;;;;;;;;;5065785;28;20060;-81
2023/05/31 09:10:47;;;;;;;3.50;1.60;;;;;;;;;;5066821;28;20099;-82
2023/05/31 09:13:13;;;;;;;3.50;1.95;;;;;;;;;;5062905;28;20785;-81
2023/05/31 09:15:41;;;;;;;3.85;1.88;;;;;;;;;;5067410;28;20046;-81
2023/05/31 09:18:19;;;;;;;2.75;1.83;;;;;;;;;;5059226;28;20044;-83
2023/05/31 09:20:49;;;;;;;5.75;1.52;;;;;;;;;;4997664;28;20052;-82
2023/05/31 09:23:17;;;;;;;;;;;;;;;;;;5060822;28;20083;-81
2023/05/31 09:25:53;;;;;;;2.88;1.92;;;;;;;;;;5039880;28;19916;-81
2023/05/31 09:28:20;;;;;;;4.35;1.70;;;;;;;;;;5045693;28;20052;-81
2023/05/31 09:30:45;;;;;;;4.22;2.13;;;;;;;;;;5062874;28;20052;-82
2023/05/31 09:33:13;;;;;;;3.58;1.63;;;;;;;;;;5011635;28;20050;-82
2023/05/31 09:35:56;;;;;;;5.07;1.92;;;;;;;;;;5062154;28;20496;-82
2023/05/31 09:38:32;;;;;;;3.22;1.58;;;;;;;;;;5036541;28;20041;-81
2023/05/31 09:41:14;;;;;;;3.25;1.75;;;;;;;;;;5061778;28;20051;-81
2023/05/31 09:43:41;;;;;;;5.50;1.90;;;;;;;;;;5041644;28;20085;-81
2023/05/31 09:46:15;;;;;;;1.70;1.40;;;;;;;;;;5056362;28;20048;-81
2023/05/31 09:48:42;;;;;;;4.82;1.80;;;;;;;;;;5066673;28;20036;-83
2023/05/31 09:51:11;;;;;;;4.47;1.85;;;;;;;;;;5066227;28;20063;-82
2023/05/31 09:53:41;;;;;;;2.88;1.60;;;;;;;;;;5049560;28;20047;-81
2023/05/31 09:56:11;;;;;;;2.95;1.67;;;;;;;;;;5022195;28;20054;-82
2023/05/31 09:58:36;;;;;;;2.65;1.65;;;;;;;;;;5033490;28;20809;-81
2023/05/31 10:01:02;;;;;;;3.17;1.67;;;;;;;;;;5042789;28;20104;-81
2023/05/31 10:03:28;;;;;;;2.65;1.77;;;;;;;;;;5045501;28;20048;-81
2023/05/31 10:05:54;;;;;;;2.80;1.50;;;;;;;;;;5026647;28;20049;-81
2023/05/31 10:08:22;;;;;;;4.85;1.80;;;;;;;;;;5043987;28;20040;-81
2023/05/31 10:10:47;;;;;;;3.35;1.77;;;;;;;;;;5062783;28;20070;-81
2023/05/31 10:13:14;;;;;;;3.55;1.80;;;;;;;;;;5065007;28;20032;-83
2023/05/31 10:15:41;;;;;;;2.55;1.50;;;;;;;;;;5057518;28;20052;-81
2023/05/31 10:18:07;;;;;;;4.43;1.60;;;;;;;;;;5071791;28;20066;-81
2023/05/31 10:20:41;;;;;;;2.13;1.60;;;;;;;;;;5045546;28;20320;-81
2023/05/31 10:23:16;;;;;;;2.50;1.50;;;;;;;;;;5011453;28;20058;-81
2023/05/31 10:25:53;;;;;;;2.53;1.90;;;;;;;;;;5066611;28;20047;-82
2023/05/31 10:28:24;;;;;;;4.18;1.65;;;;;;;;;;5053491;28;20040;-82
2023/05/31 10:30:51;;;;;;;5.30;1.63;;;;;;;;;;5047815;28;20058;-81
2023/05/31 10:33:20;;;;;;;3.33;1.50;;;;;;;;;;5029917;28;20036;-81
2023/05/31 10:35:46;;;;;;;3.22;1.98;;;;;;;;;;5063454;28;20109;-82
2023/05/31 10:38:13;;;;;;;3.78;1.88;;;;;;;;;;5063903;28;20039;-82
2023/05/31 10:40:55;;;;;;;1.88;1.55;;;;;;;;;;5064422;28;20097;-80
2023/05/31 10:43:29;;;;;;;1.98;1.50;;;;;;;;;;5061825;28;20039;-80
2023/05/31 10:46:06;;;;;;;5.10;1.83;;;;;;;;;;5026170;28;20667;-81
2023/05/31 10:48:57;;;;;;;4.28;1.58;;;;;;;;;;5058214;28;20521;-81
2023/05/31 10:51:45;;;;;;;3.83;1.83;;;;;;;;;;5064162;28;20400;-82
2023/05/31 10:54:18;;;;;;;4.97;1.70;;;;;;;;;;5042095;28;20032;-81
2023/05/31 10:57:03;;;;;;;2.47;1.75;;;;;;;;;;5062156;28;20056;-81
2023/05/31 10:59:38;;;;;;;2.90;1.48;;;;;;;;;;5063395;28;20063;-80
2023/05/31 11:02:05;;;;;;;1.85;1.50;;;;;;;;;;5033063;28;20185;-82
2023/05/31 11:04:31;;;;;;;3.90;1.58;;;;;;;;;;5036781;28;20036;-81
2023/05/31 11:07:17;;;;;;;1.48;1.10;;;;;;;;;;5050481;28;20043;-80
2023/05/31 11:09:57;;;;;;;2.78;1.50;;;;;;;;;;5061507;28;20059;-81
2023/05/31 11:12:33;;;;;;;3.95;1.55;;;;;;;;;;5054825;28;20059;-81
2023/05/31 11:18:41;;;;;;;4.03;1.75;;;;;;;;;;5033167;28;20043;-81
2023/05/31 11:21:06;;;;;;;2.85;1.60;;;;;;;;;;5008090;28;20086;-80
2023/05/31 11:23:34;;;;;;;2.40;1.65;;;;;;;;;;5030045;28;20040;-81
2023/05/31 11:26:18;;;;;;;2.90;1.52;;;;;;;;;;5022169;28;20059;-81
2023/05/31 11:28:57;;;;;;;3.38;1.50;;;;;;;;;;5026864;28;20052;-81
2023/05/31 11:31:50;;;;;;;3.33;1.38;;;;;;;;;;5025056;28;20040;-81
2023/05/31 11:34:25;;;;;;;3.45;1.38;;;;;;;;;;5054008;28;20054;-81
2023/05/31 11:36:50;;;;;;;2.25;1.45;;;;;;;;;;5049462;28;20036;-82
2023/05/31 11:39:17;;;;;;;2.63;1.40;;;;;;;;;;5062007;28;20496;-82
2023/05/31 11:41:44;;;;;;;2.83;1.42;;;;;;;;;;5016082;28;20041;-83
2023/05/31 11:44:16;;;;;;;4.07;1.85;;;;;;;;;;5064024;28;20184;-82
2023/05/31 11:46:45;;;;;;;3.83;1.60;;;;;;;;;;5063735;28;20559;-82
2023/05/31 11:49:11;;;;;;;3.70;1.58;;;;;;;;;;5066148;28;20032;-82
2023/05/31 11:51:38;;;;;;;2.40;1.40;;;;;;;;;;5045421;28;20055;-82
2023/05/31 11:54:04;;;;;;;4.03;1.50;;;;;;;;;;5015120;28;20041;-82
2023/05/31 11:56:30;;;;;;;3.55;1.58;;;;;;;;;;5061234;28;20093;-82
2023/05/31 11:58:57;;;;;;;2.60;1.50;;;;;;;;;;5027085;28;20040;-83
2023/05/31 12:01:23;;;;;;;2.88;1.58;;;;;;;;;;5042604;28;20102;-83
2023/05/31 12:03:48;;;;;;;2.45;1.60;;;;;;;;;;5033467;28;20040;-83
2023/05/31 12:06:13;;;;;;;1.48;1.30;;;;;;;;;;5031628;28;20114;-83
2023/05/31 12:08:39;;;;;;;1.60;1.20;;;;;;;;;;5050183;28;20074;-82
2023/05/31 12:11:05;;;;;;;6.18;1.67;;;;;;;;;;5067667;28;20040;-82
2023/05/31 12:13:32;;;;;;;2.88;1.50;;;;;;;;;;5028048;28;20067;-82
2023/05/31 12:15:58;;;;;;;3.20;1.77;;;;;;;;;;5063773;28;20109;-83
2023/05/31 12:18:24;;;;;;;2.13;1.38;;;;;;;;;;5030772;28;20481;-83
2023/05/31 12:20:50;;;;;;;3.33;1.70;;;;;;;;;;5064550;28;20044;-83
2023/05/31 12:23:18;;;;;;;2.22;1.42;;;;;;;;;;5063938;28;20512;-82
2023/05/31 12:25:47;;;;;;;4.43;1.60;;;;;;;;;;5063925;28;20040;-83
2023/05/31 12:28:16;;;;;;;3.70;1.60;;;;;;;;;;4979538;28;20046;-83
2023/05/31 12:30:48;;;;;;;5.32;1.65;;;;;;;;;;5044881;28;20123;-83
2023/05/31 12:33:14;;;;;;;4.97;1.30;;;;;;;;;;5049513;28;20070;-83
2023/05/31 12:35:43;;;;;;;2.78;1.58;;;;;;;;;;5026321;28;20400;-83
2023/05/31 12:38:10;;;;;;;2.20;1.38;;;;;;;;;;5030491;28;20112;-83
2023/05/31 12:40:41;;;;;;;2.33;1.67;;;;;;;;;;5015913;28;20064;-82
2023/05/31 12:43:06;;;;;;;4.32;1.60;;;;;;;;;;5043827;28;20119;-83
2023/05/31 12:45:37;;;;;;;2.35;1.55;;;;;;;;;;5065060;28;20182;-83
2023/05/31 12:48:03;;;;;;;2.42;1.23;;;;;;;;;;5035374;28;20584;-83
2023/05/31 12:50:29;;;;;;;3.13;1.70;;;;;;;;;;5070640;28;20049;-82
2023/05/31 12:52:57;;;;;;;3.75;1.45;;;;;;;;;;5022185;28;20064;-83
2023/05/31 12:55:22;;;;;;;2.20;1.40;;;;;;;;;;5051619;28;20032;-83
2023/05/31 12:57:48;;;;;;;2.33;1.30;;;;;;;;;;5049255;28;20629;-83
2023/05/31 13:00:13;;;;;;;3.38;1.40;;;;;;;;;;5013162;28;20435;-82
2023/05/31 13:02:40;;;;;;;4.63;1.60;;;;;;;;;;5044727;28;20099;-83
2023/05/31 13:05:06;;;;;;;2.42;1.50;;;;;;;;;;5047628;28;20116;-83
2023/05/31 13:07:32;;;;;;;4.15;1.60;;;;;;;;;;5028373;28;20051;-83
2023/05/31 13:09:58;;;;;;;3.40;1.65;;;;;;;;;;5044614;28;20062;-83
2023/05/31 13:12:23;;;;;;;1.83;1.38;;;;;;;;;;5045115;28;20067;-82
2023/05/31 13:14:51;;;;;;;2.58;1.45;;;;;;;;;;5063602;28;20107;-83
2023/05/31 13:17:17;;;;;;;4.60;1.50;;;;;;;;;;5070836;28;20733;-82
2023/05/31 13:19:42;;;;;;;2.85;1.60;;;;;;;;;;5036404;28;20119;-82
2023/05/31 13:22:08;;;;;;;2.60;1.42;;;;;;;;;;5037871;28;20139;-82
2023/05/31 13:24:34;;;;;;;4.95;1.50;;;;;;;;;;5027945;28;20306;-82
2023/05/31 13:26:59;;;;;;;3.03;1.42;;;;;;;;;;5037976;28;20060;-82
2023/05/31 13:29:25;;;;;;;4.25;2.00;;;;;;;;;;5041866;28;20111;-82
2023/05/31 13:31:51;;;;;;;3.60;1.70;;;;;;;;;;5046297;28;20136;-83
2023/05/31 13:34:17;;;;;;;2.22;1.38;;;;;;;;;;5028164;28;20100;-83
2023/05/31 13:36:43;;;;;;;3.03;1.40;;;;;;;;;;5063089;28;20036;-83
2023/05/31 13:39:13;;;;;;;3.78;1.30;;;;;;;;;;5068117;28;20086;-83
2023/05/31 13:41:38;;;;;;;3.05;1.40;;;;;;;;;;5039647;28;20046;-82
2023/05/31 13:44:04;;;;;;;3.28;1.70;;;;;;;;;;5058758;28;20036;-82
2023/05/31 13:46:29;;;;;;;3.53;1.55;;;;;;;;;;5047324;28;20052;-83
2023/05/31 13:48:55;;;;;;;3.35;1.50;;;;;;;;;;5011967;28;20032;-82
2023/05/31 13:51:20;;;;;;;2.05;1.23;;;;;;;;;;5053077;28;20040;-83
2023/05/31 13:53:46;;;;;;;3.45;1.70;;;;;;;;;;5050731;28;20063;-83
2023/05/31 13:56:11;;;;;;;2.60;1.40;;;;;;;;;;5015971;28;20033;-82
2023/05/31 13:58:37;;;;;;;4.53;1.50;;;;;;;;;;5066064;28;20417;-82
2023/05/31 14:01:09;;;;;;;2.65;1.35;;;;;;;;;;5060407;28;20610;-83
2023/05/31 14:03:36;;;;;;;1.80;1.35;;;;;;;;;;4974175;28;20061;-82
2023/05/31 14:06:02;;;;;;;3.28;1.35;;;;;;;;;;5044835;28;20110;-83
2023/05/31 14:08:27;;;;;;;2.75;1.60;;;;;;;;;;5040406;28;20040;-82
2023/05/31 14:10:53;;;;;;;2.85;1.40;;;;;;;;;;5041067;28;20048;-83
2023/05/31 14:13:18;;;;;;;3.05;1.38;;;;;;;;;;5055290;28;20484;-82
2023/05/31 14:15:44;;;;;;;4.15;1.88;;;;;;;;;;5021213;28;20049;-82
2023/05/31 14:18:10;;;;;;;4.80;1.60;;;;;;;;;;5046141;28;20603;-83
2023/05/31 14:20:35;;;;;;;1.75;1.13;;;;;;;;;;5055190;28;20131;-83
2023/05/31 14:23:02;;;;;;;2.95;1.60;;;;;;;;;;5051774;28;20040;-82
2023/05/31 14:25:28;;;;;;;2.55;1.40;;;;;;;;;;5034899;28;20033;-82
2023/05/31 14:27:53;;;;;;;2.08;1.35;;;;;;;;;;5044983;28;20051;-83
2023/05/31 14:30:19;;;;;;;2.72;1.20;;;;;;;;;;5050842;28;20454;-83
2023/05/31 14:32:44;;;;;;;2.15;1.35;;;;;;;;;;5066867;28;20035;-82
2023/05/31 14:35:11;;;;;;;2.47;1.52;;;;;;;;;;5050430;28;20031;-81
2023/05/31 14:37:37;;;;;;;2.47;1.40;;;;;;;;;;5047620;28;20039;-83
2023/05/31 14:40:03;;;;;;;3.13;1.27;;;;;;;;;;5036748;28;20032;-80
2023/05/31 14:42:28;;;;;;;2.38;1.00;;;;;;;;;;5043050;28;20044;-80
2023/05/31 14:44:55;;;;;;;2.08;1.15;;;;;;;;;;5027411;28;20040;-80
2023/05/31 14:47:20;;;;;;;2.65;1.50;;;;;;;;;;5060836;28;20051;-81